sensor_id;sensor_type;location;lat;lon;timestamp;pressure;altitude;pressure_sealevel;temperature;humidity
70506;BME280;58032;49.820;6.274;2023-03-21T00:01:44;97834.97;;;5.92;100.00
70506;BME280;58032;49.820;6.274;2023-03-21T00:04:10;97829.75;;;5.94;100.00
70506;BME280;58032;49.820;6.274;2023-03-21T00:06:37;97825.69;;;5.98;100.00
70506;BME280;58032;49.820;6.274;2023-03-21T00:09:04;97825.88;;;5.88;100.00
70506;BME280;58032;49.820;6.274;2023-03-21T00:11:31;97818.59;;;5.94;100.00
70506;BME280;58032;49.820;6.274;2023-03-21T00:13:58;97819.78;;;5.93;100.00
70506;BME280;58032;49.820;6.274;2023-03-21T00:16:28;97823.72;;;5.99;100.00
70506;BME280;58032;49.820;6.274;2023-03-21T00:19:01;97815.34;;;5.95;100.00
70506;BME280;58032;49.820;6.274;2023-03-21T00:21:32;97815.84;;;5.90;100.00
70506;BME280;58032;49.820;6.274;2023-03-21T00:24:24;97821.16;;;5.81;100.00
70506;BME280;58032;49.820;6.274;2023-03-21T00:26:51;97818.00;;;5.79;100.00
70506;BME280;58032;49.820;6.274;2023-03-21T00:29:18;97809.97;;;5.81;100.00
70506;BME280;58032;49.820;6.274;2023-03-21T00:31:45;97813.53;;;5.85;100.00
70506;BME280;58032;49.820;6.274;2023-03-21T00:34:12;97811.91;;;5.88;100.00
70506;BME280;58032;49.820;6.274;2023-03-21T00:36:39;97812.22;;;5.93;100.00
70506;BME280;58032;49.820;6.274;2023-03-21T00:39:06;97812.94;;;5.97;100.00
70506;BME280;58032;49.820;6.274;2023-03-21T00:41:33;97803.63;;;6.08;100.00
70506;BME280;58032;49.820;6.274;2023-03-21T00:44:09;97807.22;;;6.08;100.00
70506;BME280;58032;49.820;6.274;2023-03-21T00:46:37;97799.97;;;6.11;100.00
70506;BME280;58032;49.820;6.274;2023-03-21T00:49:24;97799.19;;;6.10;100.00
70506;BME280;58032;49.820;6.274;2023-03-21T00:51:51;97800.53;;;6.02;100.00
70506;BME280;58032;49.820;6.274;2023-03-21T00:54:20;97790.44;;;6.08;100.00
70506;BME280;58032;49.820;6.274;2023-03-21T00:56:47;97788.06;;;6.07;100.00
70506;BME280;58032;49.820;6.274;2023-03-21T00:59:14;97788.00;;;6.10;100.00
70506;BME280;58032;49.820;6.274;2023-03-21T01:01:42;97775.81;;;5.97;100.00
70506;BME280;58032;49.820;6.274;2023-03-21T01:04:13;97782.69;;;5.92;100.00
70506;BME280;58032;49.820;6.274;2023-03-21T01:06:43;97771.84;;;5.94;100.00
70506;BME280;58032;49.820;6.274;2023-03-21T01:09:14;97769.81;;;5.98;100.00
70506;BME280;58032;49.820;6.274;2023-03-21T01:11:42;97770.94;;;6.05;100.00
70506;BME280;58032;49.820;6.274;2023-03-21T01:14:11;97769.34;;;6.04;100.00
70506;BME280;58032;49.820;6.274;2023-03-21T01:16:50;97769.41;;;6.00;100.00
70506;BME280;58032;49.820;6.274;2023-03-21T01:19:19;97764.66;;;5.97;100.00
70506;BME280;58032;49.820;6.274;2023-03-21T01:21:54;97759.88;;;5.94;100.00
70506;BME280;58032;49.820;6.274;2023-03-21T01:24:23;97757.09;;;5.94;100.00
70506;BME280;58032;49.820;6.274;2023-03-21T01:26:49;97750.03;;;5.85;100.00
70506;BME280;58032;49.820;6.274;2023-03-21T01:29:16;97750.72;;;5.93;100.00
70506;BME280;58032;49.820;6.274;2023-03-21T01:31:43;97753.09;;;5.95;100.00
70506;BME280;58032;49.820;6.274;2023-03-21T01:34:10;97754.25;;;5.97;100.00
70506;BME280;58032;49.820;6.274;2023-03-21T01:36:37;97751.41;;;6.01;100.00
70506;BME280;58032;49.820;6.274;2023-03-21T01:39:08;97745.72;;;6.08;100.00
70506;BME280;58032;49.820;6.274;2023-03-21T01:41:38;97738.13;;;6.09;100.00
70506;BME280;58032;49.820;6.274;2023-03-21T01:44:21;97746.97;;;6.04;100.00
70506;BME280;58032;49.820;6.274;2023-03-21T01:46:50;97745.84;;;5.97;100.00
70506;BME280;58032;49.820;6.274;2023-03-21T01:50:06;97747.50;;;5.95;100.00
70506;BME280;58032;49.820;6.274;2023-03-21T01:52:51;97743.34;;;5.79;100.00
70506;BME280;58032;49.820;6.274;2023-03-21T01:55:26;97742.50;;;5.82;100.00
70506;BME280;58032;49.820;6.274;2023-03-21T01:57:59;97732.97;;;5.80;100.00
70506;BME280;58032;49.820;6.274;2023-03-21T02:01:00;97733.66;;;5.88;100.00
70506;BME280;58032;49.820;6.274;2023-03-21T02:03:35;97733.81;;;6.04;100.00
70506;BME280;58032;49.820;6.274;2023-03-21T02:06:43;97728.56;;;6.06;100.00
70506;BME280;58032;49.820;6.274;2023-03-21T02:09:24;97725.06;;;6.02;100.00
70506;BME280;58032;49.820;6.274;2023-03-21T02:11:54;97721.88;;;6.00;100.00
70506;BME280;58032;49.820;6.274;2023-03-21T02:14:25;97712.00;;;5.92;100.00
70506;BME280;58032;49.820;6.274;2023-03-21T02:17:30;97710.19;;;5.81;100.00
70506;BME280;58032;49.820;6.274;2023-03-21T02:28:08;97699.81;;;5.82;100.00
70506;BME280;58032;49.820;6.274;2023-03-21T02:39:13;97682.63;;;6.07;100.00
70506;BME280;58032;49.820;6.274;2023-03-21T02:44:40;97684.22;;;6.08;100.00
70506;BME280;58032;49.820;6.274;2023-03-21T02:50:09;97671.69;;;6.16;100.00
70506;BME280;58032;49.820;6.274;2023-03-21T02:52:38;97667.75;;;6.14;100.00
70506;BME280;58032;49.820;6.274;2023-03-21T02:55:13;97666.94;;;6.13;100.00
70506;BME280;58032;49.820;6.274;2023-03-21T02:57:50;97664.06;;;6.17;100.00
70506;BME280;58032;49.820;6.274;2023-03-21T03:00:21;97657.41;;;6.11;100.00
70506;BME280;58032;49.820;6.274;2023-03-21T03:02:50;97671.09;;;6.05;100.00
70506;BME280;58032;49.820;6.274;2023-03-21T03:05:35;97658.34;;;6.04;100.00
70506;BME280;58032;49.820;6.274;2023-03-21T03:17:16;97660.38;;;6.00;100.00
70506;BME280;58032;49.820;6.274;2023-03-21T03:19:57;97656.38;;;5.77;100.00
70506;BME280;58032;49.820;6.274;2023-03-21T03:28:27;97657.69;;;5.69;100.00
70506;BME280;58032;49.820;6.274;2023-03-21T03:30:57;97662.88;;;5.70;100.00
70506;BME280;58032;49.820;6.274;2023-03-21T03:33:43;97662.13;;;5.66;100.00
70506;BME280;58032;49.820;6.274;2023-03-21T03:36:14;97655.16;;;5.78;100.00
70506;BME280;58032;49.820;6.274;2023-03-21T03:39:08;97660.69;;;5.82;100.00
70506;BME280;58032;49.820;6.274;2023-03-21T03:41:58;97647.47;;;5.82;100.00
70506;BME280;58032;49.820;6.274;2023-03-21T03:44:42;97649.56;;;5.78;100.00
70506;BME280;58032;49.820;6.274;2023-03-21T03:47:11;97648.84;;;5.74;100.00
70506;BME280;58032;49.820;6.274;2023-03-21T03:52:48;97642.41;;;5.77;100.00
70506;BME280;58032;49.820;6.274;2023-03-21T03:55:25;97639.53;;;5.81;100.00
70506;BME280;58032;49.820;6.274;2023-03-21T03:58:00;97652.47;;;5.71;100.00
70506;BME280;58032;49.820;6.274;2023-03-21T04:00:33;97648.97;;;5.67;100.00
70506;BME280;58032;49.820;6.274;2023-03-21T04:03:00;97648.22;;;5.63;100.00
70506;BME280;58032;49.820;6.274;2023-03-21T04:05:27;97653.81;;;5.63;100.00
70506;BME280;58032;49.820;6.274;2023-03-21T04:07:54;97651.84;;;5.60;100.00
70506;BME280;58032;49.820;6.274;2023-03-21T04:10:30;97644.34;;;5.57;100.00
70506;BME280;58032;49.820;6.274;2023-03-21T04:12:58;97652.34;;;5.54;100.00
70506;BME280;58032;49.820;6.274;2023-03-21T04:15:40;97651.25;;;5.48;100.00
70506;BME280;58032;49.820;6.274;2023-03-21T04:18:13;97652.09;;;5.45;100.00
70506;BME280;58032;49.820;6.274;2023-03-21T04:20:41;97647.38;;;5.42;100.00
70506;BME280;58032;49.820;6.274;2023-03-21T04:23:10;97653.69;;;5.46;100.00
70506;BME280;58032;49.820;6.274;2023-03-21T04:25:43;97656.47;;;5.46;100.00
70506;BME280;58032;49.820;6.274;2023-03-21T04:28:21;97649.25;;;5.49;100.00
70506;BME280;58032;49.820;6.274;2023-03-21T04:30:59;97648.47;;;5.48;100.00
70506;BME280;58032;49.820;6.274;2023-03-21T04:33:43;97637.34;;;5.45;100.00
70506;BME280;58032;49.820;6.274;2023-03-21T04:36:10;97651.31;;;5.45;100.00
70506;BME280;58032;49.820;6.274;2023-03-21T04:38:52;97652.84;;;5.49;100.00
70506;BME280;58032;49.820;6.274;2023-03-21T04:41:19;97649.63;;;5.51;100.00
70506;BME280;58032;49.820;6.274;2023-03-21T04:43:47;97646.88;;;5.47;100.00
70506;BME280;58032;49.820;6.274;2023-03-21T04:46:14;97646.06;;;5.50;100.00
70506;BME280;58032;49.820;6.274;2023-03-21T04:48:41;97640.31;;;5.34;100.00
70506;BME280;58032;49.820;6.274;2023-03-21T04:51:08;97638.94;;;5.46;100.00
70506;BME280;58032;49.820;6.274;2023-03-21T04:53:35;97638.44;;;5.51;100.00
70506;BME280;58032;49.820;6.274;2023-03-21T04:56:05;97635.84;;;5.40;100.00
70506;BME280;58032;49.820;6.274;2023-03-21T04:58:33;97638.63;;;5.40;100.00
70506;BME280;58032;49.820;6.274;2023-03-21T05:00:59;97638.19;;;5.42;100.00
70506;BME280;58032;49.820;6.274;2023-03-21T05:03:28;97634.19;;;5.43;100.00
70506;BME280;58032;49.820;6.274;2023-03-21T05:06:00;97635.78;;;5.44;100.00
70506;BME280;58032;49.820;6.274;2023-03-21T05:08:27;97643.25;;;5.50;100.00
70506;BME280;58032;49.820;6.274;2023-03-21T05:10:54;97633.22;;;5.53;100.00
70506;BME280;58032;49.820;6.274;2023-03-21T05:13:24;97638.81;;;5.53;100.00
70506;BME280;58032;49.820;6.274;2023-03-21T05:15:51;97639.19;;;5.55;100.00
70506;BME280;58032;49.820;6.274;2023-03-21T05:18:18;97639.31;;;5.48;100.00
70506;BME280;58032;49.820;6.274;2023-03-21T05:21:08;97636.75;;;5.57;100.00
70506;BME280;58032;49.820;6.274;2023-03-21T05:23:39;97641.13;;;5.58;100.00
70506;BME280;58032;49.820;6.274;2023-03-21T05:26:08;97637.66;;;5.50;100.00
70506;BME280;58032;49.820;6.274;2023-03-21T05:28:50;97633.72;;;5.48;100.00
70506;BME280;58032;49.820;6.274;2023-03-21T05:31:17;97639.66;;;5.50;100.00
70506;BME280;58032;49.820;6.274;2023-03-21T05:33:47;97640.81;;;5.52;100.00
70506;BME280;58032;49.820;6.274;2023-03-21T05:36:17;97641.31;;;5.47;100.00
70506;BME280;58032;49.820;6.274;2023-03-21T05:38:44;97639.25;;;5.51;100.00
70506;BME280;58032;49.820;6.274;2023-03-21T05:41:14;97639.31;;;5.48;100.00
70506;BME280;58032;49.820;6.274;2023-03-21T05:43:41;97650.06;;;5.49;100.00
70506;BME280;58032;49.820;6.274;2023-03-21T05:46:10;97639.66;;;5.50;100.00
70506;BME280;58032;49.820;6.274;2023-03-21T05:48:37;97646.06;;;5.50;100.00
70506;BME280;58032;49.820;6.274;2023-03-21T05:51:13;97644.94;;;5.44;100.00
70506;BME280;58032;49.820;6.274;2023-03-21T05:53:40;97643.59;;;5.52;100.00
70506;BME280;58032;49.820;6.274;2023-03-21T05:56:08;97655.03;;;5.62;100.00
70506;BME280;58032;49.820;6.274;2023-03-21T05:58:54;97648.72;;;5.58;100.00
70506;BME280;58032;49.820;6.274;2023-03-21T06:01:22;97657.22;;;5.50;100.00
70506;BME280;58032;49.820;6.274;2023-03-21T06:03:57;97657.22;;;5.50;100.00
70506;BME280;58032;49.820;6.274;2023-03-21T06:06:26;97653.16;;;5.55;100.00
70506;BME280;58032;49.820;6.274;2023-03-21T06:08:55;97657.09;;;5.58;100.00
70506;BME280;58032;49.820;6.274;2023-03-21T06:11:31;97665.47;;;5.58;100.00
70506;BME280;58032;49.820;6.274;2023-03-21T06:14:14;97661.00;;;5.64;100.00
70506;BME280;58032;49.820;6.274;2023-03-21T06:16:43;97664.63;;;5.61;100.00
70506;BME280;58032;49.820;6.274;2023-03-21T06:19:11;97662.13;;;5.66;100.00
70506;BME280;58032;49.820;6.274;2023-03-21T06:21:53;97661.53;;;5.55;100.00
70506;BME280;58032;49.820;6.274;2023-03-21T06:24:20;97674.16;;;5.39;100.00
70506;BME280;58032;49.820;6.274;2023-03-21T06:26:47;97660.34;;;5.52;100.00
70506;BME280;58032;49.820;6.274;2023-03-21T06:29:14;97658.16;;;5.40;100.00
70506;BME280;58032;49.820;6.274;2023-03-21T06:31:46;97658.16;;;5.40;100.00
70506;BME280;58032;49.820;6.274;2023-03-21T06:34:13;97660.81;;;5.23;100.00
70506;BME280;58032;49.820;6.274;2023-03-21T06:36:41;97656.81;;;5.25;100.00
70506;BME280;58032;49.820;6.274;2023-03-21T06:39:11;97655.97;;;5.28;100.00
70506;BME280;58032;49.820;6.274;2023-03-21T06:41:39;97656.25;;;5.33;100.00
70506;BME280;58032;49.820;6.274;2023-03-21T06:44:06;97654.78;;;5.29;100.00
70506;BME280;58032;49.820;6.274;2023-03-21T06:46:42;97653.81;;;5.63;100.00
70506;BME280;58032;49.820;6.274;2023-03-21T06:49:10;97648.91;;;5.70;100.00
70506;BME280;58032;49.820;6.274;2023-03-21T06:51:37;97649.06;;;5.60;100.00
70506;BME280;58032;49.820;6.274;2023-03-21T06:54:09;97645.19;;;5.53;100.00
70506;BME280;58032;49.820;6.274;2023-03-21T06:56:45;97645.03;;;5.37;100.00
70506;BME280;58032;49.820;6.274;2023-03-21T06:59:18;97643.13;;;5.58;100.00
70506;BME280;58032;49.820;6.274;2023-03-21T07:01:51;97647.72;;;5.68;100.00
70506;BME280;58032;49.820;6.274;2023-03-21T07:04:19;97651.50;;;5.58;100.00
70506;BME280;58032;49.820;6.274;2023-03-21T07:06:46;97650.72;;;5.57;100.00
70506;BME280;58032;49.820;6.274;2023-03-21T07:09:13;97648.78;;;5.54;100.00
70506;BME280;58032;49.820;6.274;2023-03-21T07:11:43;97646.09;;;5.47;100.00
70506;BME280;58032;49.820;6.274;2023-03-21T07:14:10;97653.31;;;5.68;100.00
70506;BME280;58032;49.820;6.274;2023-03-21T07:16:37;97647.22;;;5.77;100.00
70506;BME280;58032;49.820;6.274;2023-03-21T07:19:04;97657.63;;;5.49;100.00
70506;BME280;58032;49.820;6.274;2023-03-21T07:21:31;97666.81;;;5.97;100.00
70506;BME280;58032;49.820;6.274;2023-03-21T07:23:58;97654.47;;;6.18;100.00
70506;BME280;58032;49.820;6.274;2023-03-21T07:26:24;97661.44;;;6.30;100.00
70506;BME280;58032;49.820;6.274;2023-03-21T07:28:51;97661.47;;;6.06;100.00
70506;BME280;58032;49.820;6.274;2023-03-21T07:31:19;97661.44;;;5.86;100.00
70506;BME280;58032;49.820;6.274;2023-03-21T07:33:47;97660.88;;;5.71;100.00
70506;BME280;58032;49.820;6.274;2023-03-21T07:36:14;97666.19;;;5.62;100.00
70506;BME280;58032;49.820;6.274;2023-03-21T07:38:42;97666.44;;;5.71;100.00
70506;BME280;58032;49.820;6.274;2023-03-21T07:41:10;97667.91;;;5.79;100.00
70506;BME280;58032;49.820;6.274;2023-03-21T07:43:37;97676.53;;;5.89;100.00
70506;BME280;58032;49.820;6.274;2023-03-21T07:46:08;97675.22;;;5.97;100.00
70506;BME280;58032;49.820;6.274;2023-03-21T07:48:35;97670.84;;;5.72;100.00
70506;BME280;58032;49.820;6.274;2023-03-21T07:51:03;97666.94;;;5.66;100.00
70506;BME280;58032;49.820;6.274;2023-03-21T07:53:33;97671.19;;;5.50;100.00
70506;BME280;58032;49.820;6.274;2023-03-21T07:56:00;97674.13;;;5.67;100.00
70506;BME280;58032;49.820;6.274;2023-03-21T07:58:27;97670.41;;;5.74;100.00
70506;BME280;58032;49.820;6.274;2023-03-21T08:00:54;97677.31;;;5.89;100.00
70506;BME280;58032;49.820;6.274;2023-03-21T08:03:22;97673.75;;;5.89;100.00
70506;BME280;58032;49.820;6.274;2023-03-21T08:05:49;97672.53;;;5.90;100.00
70506;BME280;58032;49.820;6.274;2023-03-21T08:08:16;97672.94;;;5.88;100.00
70506;BME280;58032;49.820;6.274;2023-03-21T08:10:43;97667.72;;;5.90;100.00
70506;BME280;58032;49.820;6.274;2023-03-21T08:13:11;97664.22;;;5.86;100.00
70506;BME280;58032;49.820;6.274;2023-03-21T08:15:38;97664.94;;;5.66;100.00
70506;BME280;58032;49.820;6.274;2023-03-21T08:18:08;97664.03;;;5.97;100.00
70506;BME280;58032;49.820;6.274;2023-03-21T08:20:36;97659.97;;;6.01;100.00
70506;BME280;58032;49.820;6.274;2023-03-21T08:23:03;97672.47;;;5.93;100.00
70506;BME280;58032;49.820;6.274;2023-03-21T08:25:30;97662.06;;;5.94;100.00
70506;BME280;58032;49.820;6.274;2023-03-21T08:27:57;97667.56;;;6.45;100.00
70506;BME280;58032;49.820;6.274;2023-03-21T08:30:25;97662.03;;;6.41;100.00
70506;BME280;58032;49.820;6.274;2023-03-21T08:32:57;97656.16;;;6.36;100.00
70506;BME280;58032;49.820;6.274;2023-03-21T08:35:27;97660.91;;;6.59;100.00
70506;BME280;58032;49.820;6.274;2023-03-21T08:37:54;97659.72;;;6.76;100.00
70506;BME280;58032;49.820;6.274;2023-03-21T08:40:21;97660.53;;;6.37;100.00
70506;BME280;58032;49.820;6.274;2023-03-21T08:42:48;97651.56;;;6.65;100.00
70506;BME280;58032;49.820;6.274;2023-03-21T08:45:16;97659.16;;;6.45;100.00
70506;BME280;58032;49.820;6.274;2023-03-21T08:47:44;97664.53;;;6.56;100.00
70506;BME280;58032;49.820;6.274;2023-03-21T08:50:14;97663.97;;;6.64;100.00
70506;BME280;58032;49.820;6.274;2023-03-21T08:52:41;97658.50;;;6.57;100.00
70506;BME280;58032;49.820;6.274;2023-03-21T08:55:09;97653.13;;;6.87;100.00
70506;BME280;58032;49.820;6.274;2023-03-21T08:57:37;97656.34;;;6.85;100.00
70506;BME280;58032;49.820;6.274;2023-03-21T09:00:05;97654.28;;;6.69;100.00
70506;BME280;58032;49.820;6.274;2023-03-21T09:02:38;97655.69;;;6.77;100.00
70506;BME280;58032;49.820;6.274;2023-03-21T09:05:05;97665.16;;;6.84;100.00
70506;BME280;58032;49.820;6.274;2023-03-21T09:07:34;97658.72;;;6.87;100.00
70506;BME280;58032;49.820;6.274;2023-03-21T09:10:03;97660.63;;;6.90;100.00
70506;BME280;58032;49.820;6.274;2023-03-21T09:12:46;97652.50;;;6.59;100.00
70506;BME280;58032;49.820;6.274;2023-03-21T09:15:13;97653.28;;;6.79;100.00
70506;BME280;58032;49.820;6.274;2023-03-21T09:17:40;97660.44;;;7.17;100.00
70506;BME280;58032;49.820;6.274;2023-03-21T09:20:12;97656.53;;;6.94;100.00
70506;BME280;58032;49.820;6.274;2023-03-21T09:22:48;97659.91;;;7.06;100.00
70506;BME280;58032;49.820;6.274;2023-03-21T09:25:17;97656.63;;;7.44;100.00
70506;BME280;58032;49.820;6.274;2023-03-21T09:27:46;97659.97;;;7.39;100.00
70506;BME280;58032;49.820;6.274;2023-03-21T09:30:16;97658.00;;;7.19;100.00
70506;BME280;58032;49.820;6.274;2023-03-21T09:32:44;97652.78;;;7.38;100.00
70506;BME280;58032;49.820;6.274;2023-03-21T09:35:17;97650.06;;;7.34;100.00
70506;BME280;58032;49.820;6.274;2023-03-21T09:37:46;97649.06;;;7.24;100.00
70506;BME280;58032;49.820;6.274;2023-03-21T09:40:17;97649.47;;;7.06;100.00
70506;BME280;58032;49.820;6.274;2023-03-21T09:43:06;97647.56;;;7.03;100.00
70506;BME280;58032;49.820;6.274;2023-03-21T09:45:45;97653.00;;;7.10;100.00
70506;BME280;58032;49.820;6.274;2023-03-21T09:48:23;97660.13;;;7.32;100.00
70506;BME280;58032;49.820;6.274;2023-03-21T09:50:57;97656.78;;;7.20;100.00
70506;BME280;58032;49.820;6.274;2023-03-21T09:53:30;97660.72;;;7.23;100.00
70506;BME280;58032;49.820;6.274;2023-03-21T09:56:00;97647.03;;;7.08;100.00
70506;BME280;58032;49.820;6.274;2023-03-21T10:01:18;97655.41;;;7.45;100.00
70506;BME280;58032;49.820;6.274;2023-03-21T10:03:57;97648.03;;;7.35;100.00
70506;BME280;58032;49.820;6.274;2023-03-21T10:06:26;97645.97;;;7.39;100.00
70506;BME280;58032;49.820;6.274;2023-03-21T10:09:02;97648.31;;;7.40;100.00
70506;BME280;58032;49.820;6.274;2023-03-21T10:11:42;97642.91;;;7.50;100.00
70506;BME280;58032;49.820;6.274;2023-03-21T10:14:21;97650.06;;;7.84;100.00
70506;BME280;58032;49.820;6.274;2023-03-21T10:16:56;97643.31;;;7.65;100.00
70506;BME280;58032;49.820;6.274;2023-03-21T10:19:26;97640.09;;;7.66;100.00
70506;BME280;58032;49.820;6.274;2023-03-21T10:21:54;97640.59;;;7.78;100.00
70506;BME280;58032;49.820;6.274;2023-03-21T10:24:28;97640.97;;;7.63;100.00
70506;BME280;58032;49.820;6.274;2023-03-21T10:26:57;97639.66;;;7.51;100.00
70506;BME280;58032;49.820;6.274;2023-03-21T10:29:28;97640.19;;;7.46;100.00
70506;BME280;58032;49.820;6.274;2023-03-21T10:31:58;97630.63;;;7.27;100.00
70506;BME280;58032;49.820;6.274;2023-03-21T10:34:30;97625.53;;;7.38;100.00
70506;BME280;58032;49.820;6.274;2023-03-21T10:36:59;97632.19;;;7.44;100.00
70506;BME280;58032;49.820;6.274;2023-03-21T10:41:57;97627.56;;;7.54;100.00
70506;BME280;58032;49.820;6.274;2023-03-21T10:44:32;97622.94;;;7.48;100.00
70506;BME280;58032;49.820;6.274;2023-03-21T10:47:07;97618.19;;;7.44;100.00
70506;BME280;58032;49.820;6.274;2023-03-21T10:49:36;97607.44;;;7.43;100.00
70506;BME280;58032;49.820;6.274;2023-03-21T10:52:26;97602.00;;;7.52;100.00
70506;BME280;58032;49.820;6.274;2023-03-21T10:55:27;97601.81;;;7.26;100.00
70506;BME280;58032;49.820;6.274;2023-03-21T10:58:01;97593.25;;;7.50;100.00
70506;BME280;58032;49.820;6.274;2023-03-21T11:00:35;97586.31;;;7.55;100.00
70506;BME280;58032;49.820;6.274;2023-03-21T11:03:04;97583.69;;;7.64;100.00
70506;BME280;58032;49.820;6.274;2023-03-21T11:05:40;97590.69;;;7.56;100.00
70506;BME280;58032;49.820;6.274;2023-03-21T11:08:17;97583.25;;;7.66;100.00
70506;BME280;58032;49.820;6.274;2023-03-21T11:11:00;97585.59;;;7.67;100.00
70506;BME280;58032;49.820;6.274;2023-03-21T11:13:35;97570.38;;;7.68;100.00
70506;BME280;58032;49.820;6.274;2023-03-21T11:16:17;97558.09;;;7.79;100.00
70506;BME280;58032;49.820;6.274;2023-03-21T11:18:49;97578.81;;;7.98;100.00
70506;BME280;58032;49.820;6.274;2023-03-21T11:21:16;97573.53;;;7.70;100.00
70506;BME280;58032;49.820;6.274;2023-03-21T11:23:48;97565.75;;;7.91;100.00
70506;BME280;58032;49.820;6.274;2023-03-21T11:26:26;97557.69;;;8.22;100.00
70506;BME280;58032;49.820;6.274;2023-03-21T11:28:55;97555.28;;;7.79;100.00
70506;BME280;58032;49.820;6.274;2023-03-21T11:31:36;97552.41;;;8.12;100.00
70506;BME280;58032;49.820;6.274;2023-03-21T11:34:06;97540.97;;;8.61;100.00
70506;BME280;58032;49.820;6.274;2023-03-21T11:36:36;97528.06;;;8.77;100.00
70506;BME280;58032;49.820;6.274;2023-03-21T11:41:39;97504.94;;;8.73;100.00
70506;BME280;58032;49.820;6.274;2023-03-21T11:44:26;97504.69;;;8.54;100.00
70506;BME280;58032;49.820;6.274;2023-03-21T11:46:54;97482.91;;;8.45;100.00
70506;BME280;58032;49.820;6.274;2023-03-21T11:49:22;97471.31;;;8.43;100.00
70506;BME280;58032;49.820;6.274;2023-03-21T11:52:15;97443.13;;;8.21;100.00
70506;BME280;58032;49.820;6.274;2023-03-21T11:55:06;97436.97;;;8.26;100.00
70506;BME280;58032;49.820;6.274;2023-03-21T11:57:56;97471.19;;;8.21;100.00
70506;BME280;58032;49.820;6.274;2023-03-21T12:03:50;97523.34;;;8.99;100.00
70506;BME280;58032;49.820;6.274;2023-03-21T12:06:29;97534.56;;;8.99;100.00
70506;BME280;58032;49.820;6.274;2023-03-21T12:14:58;97515.25;;;9.01;100.00
70506;BME280;58032;49.820;6.274;2023-03-21T12:31:40;97524.56;;;8.85;100.00
70506;BME280;58032;49.820;6.274;2023-03-21T12:35:00;97502.22;;;9.08;100.00
70506;BME280;58032;49.820;6.274;2023-03-21T12:37:37;97502.09;;;8.85;100.00
70506;BME280;58032;49.820;6.274;2023-03-21T12:40:48;97507.81;;;9.08;100.00
70506;BME280;58032;49.820;6.274;2023-03-21T12:43:27;97514.34;;;9.05;100.00
70506;BME280;58032;49.820;6.274;2023-03-21T12:46:00;97510.06;;;9.13;100.00
70506;BME280;58032;49.820;6.274;2023-03-21T12:51:04;97514.56;;;8.97;100.00
70506;BME280;58032;49.820;6.274;2023-03-21T12:56:21;97504.81;;;8.76;100.00
70506;BME280;58032;49.820;6.274;2023-03-21T12:59:21;97515.47;;;9.07;100.00
70506;BME280;58032;49.820;6.274;2023-03-21T13:01:55;97514.41;;;9.40;100.00
70506;BME280;58032;49.820;6.274;2023-03-21T13:04:34;97499.94;;;9.63;100.00
70506;BME280;58032;49.820;6.274;2023-03-21T13:07:06;97499.00;;;10.02;100.00
70506;BME280;58032;49.820;6.274;2023-03-21T13:09:39;97498.25;;;10.10;100.00
70506;BME280;58032;49.820;6.274;2023-03-21T13:13:24;97494.06;;;9.71;100.00
70506;BME280;58032;49.820;6.274;2023-03-21T13:15:46;97486.09;;;9.69;100.00
70506;BME280;58032;49.820;6.274;2023-03-21T13:18:47;97487.34;;;9.68;100.00
70506;BME280;58032;49.820;6.274;2023-03-21T13:26:47;97478.34;;;9.95;100.00
70506;BME280;58032;49.820;6.274;2023-03-21T13:29:28;97479.88;;;9.96;100.00
70506;BME280;58032;49.820;6.274;2023-03-21T13:34:57;97465.16;;;10.14;100.00
70506;BME280;58032;49.820;6.274;2023-03-21T13:37:30;97456.88;;;10.11;100.00
70506;BME280;58032;49.820;6.274;2023-03-21T13:40:03;97460.38;;;10.24;100.00
70506;BME280;58032;49.820;6.274;2023-03-21T13:42:43;97454.09;;;10.42;100.00
70506;BME280;58032;49.820;6.274;2023-03-21T13:45:24;97455.53;;;10.25;100.00
70506;BME280;58032;49.820;6.274;2023-03-21T13:47:57;97455.47;;;10.38;100.00
70506;BME280;58032;49.820;6.274;2023-03-21T13:50:35;97455.19;;;10.45;100.00
70506;BME280;58032;49.820;6.274;2023-03-21T13:55:44;97461.53;;;10.68;100.00
70506;BME280;58032;49.820;6.274;2023-03-21T13:58:36;97447.78;;;10.70;100.00
70506;BME280;58032;49.820;6.274;2023-03-21T14:01:21;97440.25;;;10.67;100.00
70506;BME280;58032;49.820;6.274;2023-03-21T14:03:58;97438.28;;;10.45;100.00
70506;BME280;58032;49.820;6.274;2023-03-21T14:06:33;97431.53;;;10.83;100.00
70506;BME280;58032;49.820;6.274;2023-03-21T14:09:01;97421.59;;;11.01;100.00
70506;BME280;58032;49.820;6.274;2023-03-21T14:11:31;97418.56;;;10.76;100.00
70506;BME280;58032;49.820;6.274;2023-03-21T14:14:00;97410.50;;;10.56;100.00
70506;BME280;58032;49.820;6.274;2023-03-21T14:16:30;97414.03;;;10.38;100.00
70506;BME280;58032;49.820;6.274;2023-03-21T14:19:04;97407.03;;;10.52;100.00
70506;BME280;58032;49.820;6.274;2023-03-21T14:21:33;97394.28;;;10.70;100.00
70506;BME280;58032;49.820;6.274;2023-03-21T14:24:04;97394.81;;;10.46;100.00
70506;BME280;58032;49.820;6.274;2023-03-21T14:26:34;97385.66;;;10.64;100.00
70506;BME280;58032;49.820;6.274;2023-03-21T14:29:06;97384.88;;;10.64;100.00
70506;BME280;58032;49.820;6.274;2023-03-21T14:31:48;97387.84;;;10.28;100.00
70506;BME280;58032;49.820;6.274;2023-03-21T14:34:16;97389.38;;;10.52;100.00
70506;BME280;58032;49.820;6.274;2023-03-21T14:36:44;97392.38;;;10.57;100.00
70506;BME280;58032;49.820;6.274;2023-03-21T14:39:26;97379.16;;;11.04;100.00
70506;BME280;58032;49.820;6.274;2023-03-21T14:41:56;97381.19;;;10.95;100.00
70506;BME280;58032;49.820;6.274;2023-03-21T14:47:24;97378.38;;;10.95;100.00
70506;BME280;58032;49.820;6.274;2023-03-21T14:49:53;97386.31;;;10.77;100.00
70506;BME280;58032;49.820;6.274;2023-03-21T14:52:28;97382.88;;;10.73;100.00
70506;BME280;58032;49.820;6.274;2023-03-21T14:54:56;97390.69;;;10.79;100.00
70506;BME280;58032;49.820;6.274;2023-03-21T14:57:26;97394.16;;;10.92;100.00
70506;BME280;58032;49.820;6.274;2023-03-21T14:59:58;97387.59;;;10.76;100.00
70506;BME280;58032;49.820;6.274;2023-03-21T15:02:31;97387.59;;;10.76;100.00